sensor_id;sensor_type;location;lat;lon;timestamp;temperature;humidity
32506;DHT22;18955;51.224;8.482;2022-11-04T00:01:40;10.00;87.50
32506;DHT22;18955;51.224;8.482;2022-11-04T00:04:07;10.00;87.50
32506;DHT22;18955;51.224;8.482;2022-11-04T00:06:33;10.00;87.20
32506;DHT22;18955;51.224;8.482;2022-11-04T00:09:05;10.00;87.30
32506;DHT22;18955;51.224;8.482;2022-11-04T00:11:32;10.00;87.30
32506;DHT22;18955;51.224;8.482;2022-11-04T00:14:17;10.00;87.40
32506;DHT22;18955;51.224;8.482;2022-11-04T00:16:44;10.00;87.40
32506;DHT22;18955;51.224;8.482;2022-11-04T00:19:30;10.00;87.40
32506;DHT22;18955;51.224;8.482;2022-11-04T00:22:17;10.00;87.30
32506;DHT22;18955;51.224;8.482;2022-11-04T00:25:03;10.00;87.40
32506;DHT22;18955;51.224;8.482;2022-11-04T00:27:48;10.00;87.30
32506;DHT22;18955;51.224;8.482;2022-11-04T00:30:33;10.00;87.30
32506;DHT22;18955;51.224;8.482;2022-11-04T00:32:59;10.00;87.20
32506;DHT22;18955;51.224;8.482;2022-11-04T00:35:48;10.00;87.20
32506;DHT22;18955;51.224;8.482;2022-11-04T00:38:15;10.00;87.30
32506;DHT22;18955;51.224;8.482;2022-11-04T00:40:47;10.00;87.30
32506;DHT22;18955;51.224;8.482;2022-11-04T00:43:13;10.00;87.50
32506;DHT22;18955;51.224;8.482;2022-11-04T00:45:40;10.00;87.40
32506;DHT22;18955;51.224;8.482;2022-11-04T00:48:07;10.00;87.30
32506;DHT22;18955;51.224;8.482;2022-11-04T00:50:34;10.00;87.20
32506;DHT22;18955;51.224;8.482;2022-11-04T00:53:01;10.00;87.30
32506;DHT22;18955;51.224;8.482;2022-11-04T00:55:27;10.00;87.30
32506;DHT22;18955;51.224;8.482;2022-11-04T00:57:54;10.00;87.10
32506;DHT22;18955;51.224;8.482;2022-11-04T01:00:20;10.00;87.20
32506;DHT22;18955;51.224;8.482;2022-11-04T01:02:46;10.00;87.20
32506;DHT22;18955;51.224;8.482;2022-11-04T01:05:13;10.00;87.20
32506;DHT22;18955;51.224;8.482;2022-11-04T01:07:39;10.00;87.20
32506;DHT22;18955;51.224;8.482;2022-11-04T01:10:05;10.00;87.10
32506;DHT22;18955;51.224;8.482;2022-11-04T01:12:32;10.00;87.00
32506;DHT22;18955;51.224;8.482;2022-11-04T01:14:58;10.00;87.00
32506;DHT22;18955;51.224;8.482;2022-11-04T01:17:24;10.00;87.00
32506;DHT22;18955;51.224;8.482;2022-11-04T01:19:50;10.00;87.00
32506;DHT22;18955;51.224;8.482;2022-11-04T01:22:17;10.00;87.10
32506;DHT22;18955;51.224;8.482;2022-11-04T01:24:43;10.00;87.00
32506;DHT22;18955;51.224;8.482;2022-11-04T01:27:09;10.00;87.00
32506;DHT22;18955;51.224;8.482;2022-11-04T01:29:35;10.00;87.00
32506;DHT22;18955;51.224;8.482;2022-11-04T01:32:02;10.00;87.00
32506;DHT22;18955;51.224;8.482;2022-11-04T01:34:28;10.00;86.90
32506;DHT22;18955;51.224;8.482;2022-11-04T01:36:54;10.00;86.90
32506;DHT22;18955;51.224;8.482;2022-11-04T01:39:20;9.90;86.90
32506;DHT22;18955;51.224;8.482;2022-11-04T01:41:47;10.00;86.90
32506;DHT22;18955;51.224;8.482;2022-11-04T01:49:59;10.00;87.00
32506;DHT22;18955;51.224;8.482;2022-11-04T01:52:31;9.90;86.90
32506;DHT22;18955;51.224;8.482;2022-11-04T01:55:02;9.90;86.80
32506;DHT22;18955;51.224;8.482;2022-11-04T01:57:34;9.90;86.80
32506;DHT22;18955;51.224;8.482;2022-11-04T02:00:04;9.90;86.80
32506;DHT22;18955;51.224;8.482;2022-11-04T02:02:50;9.90;86.80
32506;DHT22;18955;51.224;8.482;2022-11-04T02:05:16;9.90;86.70
32506;DHT22;18955;51.224;8.482;2022-11-04T02:07:43;9.90;86.80
32506;DHT22;18955;51.224;8.482;2022-11-04T02:10:10;9.90;86.80
32506;DHT22;18955;51.224;8.482;2022-11-04T02:12:37;9.90;86.80
32506;DHT22;18955;51.224;8.482;2022-11-04T02:31:11;9.90;86.70
32506;DHT22;18955;51.224;8.482;2022-11-04T02:33:33;9.80;86.70
32506;DHT22;18955;51.224;8.482;2022-11-04T02:36:08;9.90;86.80
32506;DHT22;18955;51.224;8.482;2022-11-04T02:47:22;9.80;86.80
32506;DHT22;18955;51.224;8.482;2022-11-04T02:49:57;9.80;86.70
32506;DHT22;18955;51.224;8.482;2022-11-04T02:55:28;9.80;86.70
32506;DHT22;18955;51.224;8.482;2022-11-04T02:57:59;9.80;86.70
32506;DHT22;18955;51.224;8.482;2022-11-04T03:00:28;9.80;86.80
32506;DHT22;18955;51.224;8.482;2022-11-04T03:03:08;9.80;86.80
32506;DHT22;18955;51.224;8.482;2022-11-04T03:05:38;9.80;86.70
32506;DHT22;18955;51.224;8.482;2022-11-04T03:08:28;9.80;86.70
32506;DHT22;18955;51.224;8.482;2022-11-04T03:11:02;9.70;86.70
32506;DHT22;18955;51.224;8.482;2022-11-04T03:13:41;9.80;86.80
32506;DHT22;18955;51.224;8.482;2022-11-04T03:16:13;9.80;86.70
32506;DHT22;18955;51.224;8.482;2022-11-04T03:21:27;9.70;86.70
32506;DHT22;18955;51.224;8.482;2022-11-04T03:23:56;9.80;86.70
32506;DHT22;18955;51.224;8.482;2022-11-04T03:26:58;9.80;86.70
32506;DHT22;18955;51.224;8.482;2022-11-04T03:34:25;9.70;86.60
32506;DHT22;18955;51.224;8.482;2022-11-04T03:36:52;9.70;86.60
32506;DHT22;18955;51.224;8.482;2022-11-04T03:39:18;9.70;86.70
32506;DHT22;18955;51.224;8.482;2022-11-04T03:41:51;9.70;86.60
32506;DHT22;18955;51.224;8.482;2022-11-04T03:44:17;9.70;86.60
32506;DHT22;18955;51.224;8.482;2022-11-04T03:46:44;9.70;86.50
32506;DHT22;18955;51.224;8.482;2022-11-04T03:49:11;9.70;86.50
32506;DHT22;18955;51.224;8.482;2022-11-04T03:51:37;9.70;86.50
32506;DHT22;18955;51.224;8.482;2022-11-04T03:54:04;9.70;86.60
32506;DHT22;18955;51.224;8.482;2022-11-04T04:05:02;9.60;86.40
32506;DHT22;18955;51.224;8.482;2022-11-04T04:07:36;9.60;86.40
32506;DHT22;18955;51.224;8.482;2022-11-04T04:12:57;9.60;86.50
32506;DHT22;18955;51.224;8.482;2022-11-04T04:15:30;9.60;86.40
32506;DHT22;18955;51.224;8.482;2022-11-04T04:18:04;9.60;86.40
32506;DHT22;18955;51.224;8.482;2022-11-04T04:20:34;9.60;86.50
32506;DHT22;18955;51.224;8.482;2022-11-04T04:23:06;9.60;86.50
32506;DHT22;18955;51.224;8.482;2022-11-04T04:25:55;9.60;86.50
32506;DHT22;18955;51.224;8.482;2022-11-04T04:28:41;9.60;86.60
32506;DHT22;18955;51.224;8.482;2022-11-04T04:31:10;9.50;86.50
32506;DHT22;18955;51.224;8.482;2022-11-04T04:33:37;9.60;86.50
32506;DHT22;18955;51.224;8.482;2022-11-04T04:36:03;9.60;86.40
32506;DHT22;18955;51.224;8.482;2022-11-04T04:38:31;9.60;86.40
32506;DHT22;18955;51.224;8.482;2022-11-04T04:41:24;9.60;86.30
32506;DHT22;18955;51.224;8.482;2022-11-04T04:44:18;9.60;86.40
32506;DHT22;18955;51.224;8.482;2022-11-04T04:47:05;9.50;86.30
32506;DHT22;18955;51.224;8.482;2022-11-04T04:49:32;9.50;86.40
32506;DHT22;18955;51.224;8.482;2022-11-04T04:52:02;9.50;86.30
32506;DHT22;18955;51.224;8.482;2022-11-04T04:54:29;9.50;86.30
32506;DHT22;18955;51.224;8.482;2022-11-04T04:56:55;9.50;86.40
32506;DHT22;18955;51.224;8.482;2022-11-04T04:59:21;9.50;86.40
32506;DHT22;18955;51.224;8.482;2022-11-04T05:01:47;9.50;86.40
32506;DHT22;18955;51.224;8.482;2022-11-04T05:04:13;9.50;86.30
32506;DHT22;18955;51.224;8.482;2022-11-04T05:06:40;9.50;86.30
32506;DHT22;18955;51.224;8.482;2022-11-04T05:09:06;9.50;86.30
32506;DHT22;18955;51.224;8.482;2022-11-04T05:11:32;9.50;86.30
32506;DHT22;18955;51.224;8.482;2022-11-04T05:13:58;9.50;86.40
32506;DHT22;18955;51.224;8.482;2022-11-04T05:16:24;9.50;86.30
32506;DHT22;18955;51.224;8.482;2022-11-04T05:18:51;9.40;86.30
32506;DHT22;18955;51.224;8.482;2022-11-04T05:21:17;9.40;86.30
32506;DHT22;18955;51.224;8.482;2022-11-04T05:23:44;9.40;86.70
32506;DHT22;18955;51.224;8.482;2022-11-04T05:26:10;9.40;86.40
32506;DHT22;18955;51.224;8.482;2022-11-04T05:28:36;9.40;86.40
32506;DHT22;18955;51.224;8.482;2022-11-04T05:31:04;9.40;86.40
32506;DHT22;18955;51.224;8.482;2022-11-04T05:33:31;9.40;86.30
32506;DHT22;18955;51.224;8.482;2022-11-04T05:36:11;9.40;86.30
32506;DHT22;18955;51.224;8.482;2022-11-04T05:38:39;9.40;86.30
32506;DHT22;18955;51.224;8.482;2022-11-04T05:41:06;9.40;86.30
32506;DHT22;18955;51.224;8.482;2022-11-04T05:43:33;9.40;86.40
32506;DHT22;18955;51.224;8.482;2022-11-04T05:46:00;9.40;86.30
32506;DHT22;18955;51.224;8.482;2022-11-04T05:48:26;9.40;86.40
32506;DHT22;18955;51.224;8.482;2022-11-04T05:50:53;9.40;86.40
32506;DHT22;18955;51.224;8.482;2022-11-04T05:53:19;9.40;86.50
32506;DHT22;18955;51.224;8.482;2022-11-04T05:55:45;9.40;86.50
32506;DHT22;18955;51.224;8.482;2022-11-04T05:58:12;9.40;86.30
32506;DHT22;18955;51.224;8.482;2022-11-04T06:00:38;9.40;86.30
32506;DHT22;18955;51.224;8.482;2022-11-04T06:03:04;9.40;86.30
32506;DHT22;18955;51.224;8.482;2022-11-04T06:05:30;9.30;86.30
32506;DHT22;18955;51.224;8.482;2022-11-04T06:07:57;9.40;86.30
32506;DHT22;18955;51.224;8.482;2022-11-04T06:10:24;9.40;86.30
32506;DHT22;18955;51.224;8.482;2022-11-04T06:12:50;9.40;86.30
32506;DHT22;18955;51.224;8.482;2022-11-04T06:15:16;9.30;86.30
32506;DHT22;18955;51.224;8.482;2022-11-04T06:17:42;9.30;86.20
32506;DHT22;18955;51.224;8.482;2022-11-04T06:20:09;9.30;86.40
32506;DHT22;18955;51.224;8.482;2022-11-04T06:22:35;9.30;86.40
32506;DHT22;18955;51.224;8.482;2022-11-04T06:25:02;9.30;86.40
32506;DHT22;18955;51.224;8.482;2022-11-04T06:27:28;9.30;86.20
32506;DHT22;18955;51.224;8.482;2022-11-04T06:29:54;9.30;86.30
32506;DHT22;18955;51.224;8.482;2022-11-04T06:32:20;9.30;86.30
32506;DHT22;18955;51.224;8.482;2022-11-04T06:34:46;9.30;86.20
32506;DHT22;18955;51.224;8.482;2022-11-04T06:37:12;9.30;86.40
32506;DHT22;18955;51.224;8.482;2022-11-04T06:39:39;9.30;86.30
32506;DHT22;18955;51.224;8.482;2022-11-04T06:42:05;9.30;86.30
32506;DHT22;18955;51.224;8.482;2022-11-04T06:44:31;9.30;86.30
32506;DHT22;18955;51.224;8.482;2022-11-04T06:46:59;9.30;86.30
32506;DHT22;18955;51.224;8.482;2022-11-04T06:49:26;9.20;86.30
32506;DHT22;18955;51.224;8.482;2022-11-04T06:51:52;9.30;86.40
32506;DHT22;18955;51.224;8.482;2022-11-04T06:54:19;9.30;86.30
32506;DHT22;18955;51.224;8.482;2022-11-04T06:56:45;9.20;86.20
32506;DHT22;18955;51.224;8.482;2022-11-04T06:59:16;9.20;86.30
32506;DHT22;18955;51.224;8.482;2022-11-04T07:01:42;9.30;86.30
32506;DHT22;18955;51.224;8.482;2022-11-04T07:04:09;9.20;86.20
32506;DHT22;18955;51.224;8.482;2022-11-04T07:06:35;9.20;86.20
32506;DHT22;18955;51.224;8.482;2022-11-04T07:09:02;9.20;86.30
32506;DHT22;18955;51.224;8.482;2022-11-04T07:11:30;9.20;86.30
32506;DHT22;18955;51.224;8.482;2022-11-04T07:13:57;9.20;86.20
32506;DHT22;18955;51.224;8.482;2022-11-04T07:16:23;9.20;86.30
32506;DHT22;18955;51.224;8.482;2022-11-04T07:18:49;9.20;86.40
32506;DHT22;18955;51.224;8.482;2022-11-04T07:21:16;9.20;86.30
32506;DHT22;18955;51.224;8.482;2022-11-04T07:23:42;9.20;86.30
32506;DHT22;18955;51.224;8.482;2022-11-04T07:26:10;9.20;86.30
32506;DHT22;18955;51.224;8.482;2022-11-04T07:28:37;9.20;86.20
32506;DHT22;18955;51.224;8.482;2022-11-04T07:31:04;9.20;86.30
32506;DHT22;18955;51.224;8.482;2022-11-04T07:33:34;9.20;86.30
32506;DHT22;18955;51.224;8.482;2022-11-04T07:36:04;9.20;86.30
32506;DHT22;18955;51.224;8.482;2022-11-04T07:38:40;9.20;86.30
32506;DHT22;18955;51.224;8.482;2022-11-04T07:41:07;9.20;86.30
32506;DHT22;18955;51.224;8.482;2022-11-04T07:43:33;9.20;86.30
32506;DHT22;18955;51.224;8.482;2022-11-04T07:46:11;9.20;86.30
32506;DHT22;18955;51.224;8.482;2022-11-04T07:48:38;9.20;86.30
32506;DHT22;18955;51.224;8.482;2022-11-04T07:51:07;9.10;86.20
32506;DHT22;18955;51.224;8.482;2022-11-04T07:53:33;9.20;86.20
32506;DHT22;18955;51.224;8.482;2022-11-04T07:56:04;9.10;86.10
32506;DHT22;18955;51.224;8.482;2022-11-04T07:58:31;9.10;86.10
32506;DHT22;18955;51.224;8.482;2022-11-04T08:01:03;9.10;86.10
32506;DHT22;18955;51.224;8.482;2022-11-04T08:03:30;9.20;86.20
32506;DHT22;18955;51.224;8.482;2022-11-04T08:05:57;9.10;86.10
32506;DHT22;18955;51.224;8.482;2022-11-04T08:08:24;9.10;86.10
32506;DHT22;18955;51.224;8.482;2022-11-04T08:10:56;9.20;86.70
32506;DHT22;18955;51.224;8.482;2022-11-04T08:13:22;9.10;86.10
32506;DHT22;18955;51.224;8.482;2022-11-04T08:15:49;9.10;86.10
32506;DHT22;18955;51.224;8.482;2022-11-04T08:18:15;9.10;86.10
32506;DHT22;18955;51.224;8.482;2022-11-04T08:20:46;9.10;86.50
32506;DHT22;18955;51.224;8.482;2022-11-04T08:23:13;9.10;86.00
32506;DHT22;18955;51.224;8.482;2022-11-04T08:25:39;9.10;86.00
32506;DHT22;18955;51.224;8.482;2022-11-04T08:28:05;9.10;86.10
32506;DHT22;18955;51.224;8.482;2022-11-04T08:30:31;9.10;86.00
32506;DHT22;18955;51.224;8.482;2022-11-04T08:32:58;9.10;86.10
32506;DHT22;18955;51.224;8.482;2022-11-04T08:35:24;9.10;86.10
32506;DHT22;18955;51.224;8.482;2022-11-04T08:37:51;9.10;86.10
32506;DHT22;18955;51.224;8.482;2022-11-04T08:40:17;9.10;86.20
32506;DHT22;18955;51.224;8.482;2022-11-04T08:42:43;9.10;86.20
32506;DHT22;18955;51.224;8.482;2022-11-04T08:45:09;9.10;86.20
32506;DHT22;18955;51.224;8.482;2022-11-04T08:47:37;9.10;86.20
32506;DHT22;18955;51.224;8.482;2022-11-04T08:50:03;9.10;86.20
32506;DHT22;18955;51.224;8.482;2022-11-04T08:52:30;9.10;86.20
32506;DHT22;18955;51.224;8.482;2022-11-04T08:54:56;9.10;86.30
32506;DHT22;18955;51.224;8.482;2022-11-04T08:57:22;9.10;86.20
32506;DHT22;18955;51.224;8.482;2022-11-04T08:59:48;9.10;86.20
32506;DHT22;18955;51.224;8.482;2022-11-04T09:02:14;9.10;86.30
32506;DHT22;18955;51.224;8.482;2022-11-04T09:04:41;9.10;86.20
32506;DHT22;18955;51.224;8.482;2022-11-04T09:07:07;9.10;86.20
32506;DHT22;18955;51.224;8.482;2022-11-04T09:09:33;9.10;86.20
32506;DHT22;18955;51.224;8.482;2022-11-04T09:12:00;9.10;86.20
32506;DHT22;18955;51.224;8.482;2022-11-04T09:14:26;9.20;86.30
32506;DHT22;18955;51.224;8.482;2022-11-04T09:16:52;9.20;86.20
32506;DHT22;18955;51.224;8.482;2022-11-04T09:19:20;9.20;86.40
32506;DHT22;18955;51.224;8.482;2022-11-04T09:21:46;9.20;86.40
32506;DHT22;18955;51.224;8.482;2022-11-04T09:24:12;9.20;86.30
32506;DHT22;18955;51.224;8.482;2022-11-04T09:26:39;9.20;86.40
32506;DHT22;18955;51.224;8.482;2022-11-04T09:29:05;9.20;86.30
32506;DHT22;18955;51.224;8.482;2022-11-04T09:31:34;9.20;86.30
32506;DHT22;18955;51.224;8.482;2022-11-04T09:34:01;9.20;86.30
32506;DHT22;18955;51.224;8.482;2022-11-04T09:36:27;9.20;86.30
32506;DHT22;18955;51.224;8.482;2022-11-04T09:38:56;9.20;87.00
32506;DHT22;18955;51.224;8.482;2022-11-04T09:47:21;9.30;86.30
32506;DHT22;18955;51.224;8.482;2022-11-04T09:49:52;9.30;86.30
32506;DHT22;18955;51.224;8.482;2022-11-04T09:52:41;9.30;86.30
32506;DHT22;18955;51.224;8.482;2022-11-04T09:57:55;9.30;86.50
32506;DHT22;18955;51.224;8.482;2022-11-04T10:00:24;9.30;86.50
32506;DHT22;18955;51.224;8.482;2022-11-04T10:03:10;9.30;86.70
32506;DHT22;18955;51.224;8.482;2022-11-04T10:22:25;9.30;86.40
32506;DHT22;18955;51.224;8.482;2022-11-04T10:27:37;9.30;86.50
32506;DHT22;18955;51.224;8.482;2022-11-04T10:35:28;9.40;86.40
32506;DHT22;18955;51.224;8.482;2022-11-04T10:37:58;9.40;86.30
32506;DHT22;18955;51.224;8.482;2022-11-04T10:40:31;9.40;86.20
32506;DHT22;18955;51.224;8.482;2022-11-04T10:43:04;9.40;86.30
32506;DHT22;18955;51.224;8.482;2022-11-04T10:45:47;9.40;86.30
32506;DHT22;18955;51.224;8.482;2022-11-04T10:48:28;9.40;86.40
32506;DHT22;18955;51.224;8.482;2022-11-04T10:50:56;9.40;86.40
32506;DHT22;18955;51.224;8.482;2022-11-04T10:53:25;9.40;86.40
32506;DHT22;18955;51.224;8.482;2022-11-04T10:59:27;9.40;86.60
32506;DHT22;18955;51.224;8.482;2022-11-04T11:01:56;9.40;86.60
32506;DHT22;18955;51.224;8.482;2022-11-04T11:04:34;9.40;86.50
32506;DHT22;18955;51.224;8.482;2022-11-04T11:07:06;9.40;86.40
32506;DHT22;18955;51.224;8.482;2022-11-04T11:09:47;9.40;86.50
32506;DHT22;18955;51.224;8.482;2022-11-04T11:12:22;9.40;86.30
32506;DHT22;18955;51.224;8.482;2022-11-04T11:14:56;9.40;86.40
32506;DHT22;18955;51.224;8.482;2022-11-04T11:17:29;9.40;86.50
32506;DHT22;18955;51.224;8.482;2022-11-04T11:22:42;9.40;86.50
32506;DHT22;18955;51.224;8.482;2022-11-04T11:28:03;9.40;86.50
32506;DHT22;18955;51.224;8.482;2022-11-04T11:30:54;9.40;86.60
32506;DHT22;18955;51.224;8.482;2022-11-04T11:33:37;9.40;86.50
32506;DHT22;18955;51.224;8.482;2022-11-04T11:36:26;9.50;86.50
32506;DHT22;18955;51.224;8.482;2022-11-04T11:39:05;9.50;86.60
32506;DHT22;18955;51.224;8.482;2022-11-04T11:42:12;9.50;86.50
32506;DHT22;18955;51.224;8.482;2022-11-04T11:44:46;9.50;86.50
32506;DHT22;18955;51.224;8.482;2022-11-04T11:52:41;9.50;86.60
32506;DHT22;18955;51.224;8.482;2022-11-04T11:55:18;9.50;86.60
32506;DHT22;18955;51.224;8.482;2022-11-04T11:58:11;9.50;86.60
32506;DHT22;18955;51.224;8.482;2022-11-04T12:00:47;9.50;86.70
32506;DHT22;18955;51.224;8.482;2022-11-04T12:09:05;9.50;86.60
32506;DHT22;18955;51.224;8.482;2022-11-04T12:14:09;9.50;86.50
32506;DHT22;18955;51.224;8.482;2022-11-04T12:16:51;9.50;86.80
32506;DHT22;18955;51.224;8.482;2022-11-04T12:19:43;9.50;86.60
32506;DHT22;18955;51.224;8.482;2022-11-04T12:25:24;9.50;86.60
32506;DHT22;18955;51.224;8.482;2022-11-04T12:31:06;9.50;86.70
32506;DHT22;18955;51.224;8.482;2022-11-04T12:33:41;9.50;86.50
32506;DHT22;18955;51.224;8.482;2022-11-04T12:39:18;9.60;86.70
32506;DHT22;18955;51.224;8.482;2022-11-04T12:42:10;9.60;86.70
32506;DHT22;18955;51.224;8.482;2022-11-04T12:47:42;9.60;86.50
32506;DHT22;18955;51.224;8.482;2022-11-04T12:50:34;9.60;86.60
32506;DHT22;18955;51.224;8.482;2022-11-04T12:56:21;9.60;86.60
32506;DHT22;18955;51.224;8.482;2022-11-04T13:01:52;9.60;86.60
32506;DHT22;18955;51.224;8.482;2022-11-04T13:04:22;9.60;86.60
32506;DHT22;18955;51.224;8.482;2022-11-04T13:09:48;9.60;86.50
32506;DHT22;18955;51.224;8.482;2022-11-04T13:12:42;9.60;86.60
32506;DHT22;18955;51.224;8.482;2022-11-04T13:15:25;9.60;86.60
32506;DHT22;18955;51.224;8.482;2022-11-04T13:18:03;9.60;86.60
32506;DHT22;18955;51.224;8.482;2022-11-04T13:20:32;9.60;86.60
32506;DHT22;18955;51.224;8.482;2022-11-04T13:23:09;9.60;86.60
32506;DHT22;18955;51.224;8.482;2022-11-04T13:25:44;9.60;87.10
32506;DHT22;18955;51.224;8.482;2022-11-04T13:28:12;9.70;86.60
32506;DHT22;18955;51.224;8.482;2022-11-04T13:31:10;9.70;86.60
32506;DHT22;18955;51.224;8.482;2022-11-04T13:39:08;9.70;86.60
32506;DHT22;18955;51.224;8.482;2022-11-04T13:44:23;9.70;86.50
32506;DHT22;18955;51.224;8.482;2022-11-04T13:46:54;9.70;86.60
32506;DHT22;18955;51.224;8.482;2022-11-04T13:49:27;9.70;86.60
32506;DHT22;18955;51.224;8.482;2022-11-04T13:57:26;9.70;86.40
32506;DHT22;18955;51.224;8.482;2022-11-04T14:08:09;9.70;86.40
32506;DHT22;18955;51.224;8.482;2022-11-04T14:16:03;9.80;86.50
32506;DHT22;18955;51.224;8.482;2022-11-04T14:18:34;9.80;86.50
32506;DHT22;18955;51.224;8.482;2022-11-04T14:21:13;9.70;86.50
32506;DHT22;18955;51.224;8.482;2022-11-04T14:23:49;9.70;86.40
32506;DHT22;18955;51.224;8.482;2022-11-04T14:26:18;9.80;86.50
32506;DHT22;18955;51.224;8.482;2022-11-04T14:28:48;9.80;86.50
32506;DHT22;18955;51.224;8.482;2022-11-04T14:31:51;9.80;86.40
32506;DHT22;18955;51.224;8.482;2022-11-04T14:37:00;9.80;86.60
32506;DHT22;18955;51.224;8.482;2022-11-04T14:39:28;9.80;86.60
32506;DHT22;18955;51.224;8.482;2022-11-04T14:41:57;9.80;86.60
32506;DHT22;18955;51.224;8.482;2022-11-04T14:44:28;9.80;86.60
32506;DHT22;18955;51.224;8.482;2022-11-04T14:47:20;9.80;86.60
32506;DHT22;18955;51.224;8.482;2022-11-04T14:49:48;9.80;86.50
32506;DHT22;18955;51.224;8.482;2022-11-04T14:57:50;9.80;86.50
32506;DHT22;18955;51.224;8.482;2022-11-04T15:00:33;9.80;86.60
32506;DHT22;18955;51.224;8.482;2022-11-04T15:05:28;9.80;86.60
32506;DHT22;18955;51.224;8.482;2022-11-04T15:07:58;9.80;86.70
32506;DHT22;18955;51.224;8.482;2022-11-04T15:10:27;9.80;86.70
32506;DHT22;18955;51.224;8.482;2022-11-04T15:12:58;9.80;86.70
32506;DHT22;18955;51.224;8.482;2022-11-04T15:18:08;9.80;86.40
32506;DHT22;18955;51.224;8.482;2022-11-04T15:20:39;9.80;86.50
32506;DHT22;18955;51.224;8.482;2022-11-04T15:23:11;9.80;86.60
32506;DHT22;18955;51.224;8.482;2022-11-04T15:25:46;9.80;86.60
32506;DHT22;18955;51.224;8.482;2022-11-04T15:28:27;9.80;86.60
32506;DHT22;18955;51.224;8.482;2022-11-04T15:31:01;9.80;86.80
32506;DHT22;18955;51.224;8.482;2022-11-04T15:33:28;9.80;86.90
32506;DHT22;18955;51.224;8.482;2022-11-04T15:35:56;9.80;86.80
32506;DHT22;18955;51.224;8.482;2022-11-04T15:38:26;9.80;86.90
32506;DHT22;18955;51.224;8.482;2022-11-04T15:40:55;9.80;86.90
32506;DHT22;18955;51.224;8.482;2022-11-04T15:43:42;9.80;86.60
32506;DHT22;18955;51.224;8.482;2022-11-04T15:46:16;9.80;86.60
32506;DHT22;18955;51.224;8.482;2022-11-04T15:49:02;9.80;86.70
32506;DHT22;18955;51.224;8.482;2022-11-04T15:51:36;9.80;86.70
32506;DHT22;18955;51.224;8.482;2022-11-04T15:54:17;9.80;86.80
32506;DHT22;18955;51.224;8.482;2022-11-04T15:56:51;9.80;86.90
32506;DHT22;18955;51.224;8.482;2022-11-04T15:59:21;9.80;86.90
32506;DHT22;18955;51.224;8.482;2022-11-04T16:01:50;9.80;86.90
32506;DHT22;18955;51.224;8.482;2022-11-04T16:04:22;9.80;86.90
32506;DHT22;18955;51.224;8.482;2022-11-04T16:15:40;9.80;86.80
32506;DHT22;18955;51.224;8.482;2022-11-04T16:18:24;9.80;86.80
32506;DHT22;18955;51.224;8.482;2022-11-04T16:20:52;9.80;86.80
32506;DHT22;18955;51.224;8.482;2022-11-04T16:23:24;9.80;86.80
32506;DHT22;18955;51.224;8.482;2022-11-04T16:26:22;9.80;86.80
32506;DHT22;18955;51.224;8.482;2022-11-04T16:28:53;9.80;86.80
32506;DHT22;18955;51.224;8.482;2022-11-04T16:33:45;9.80;86.80
32506;DHT22;18955;51.224;8.482;2022-11-04T16:36:13;9.80;86.70
32506;DHT22;18955;51.224;8.482;2022-11-04T16:38:59;9.80;86.50
32506;DHT22;18955;51.224;8.482;2022-11-04T16:41:33;9.80;86.70
32506;DHT22;18955;51.224;8.482;2022-11-04T16:44:02;9.80;86.70
32506;DHT22;18955;51.224;8.482;2022-11-04T16:46:29;9.80;86.70
32506;DHT22;18955;51.224;8.482;2022-11-04T16:48:55;9.80;86.70
32506;DHT22;18955;51.224;8.482;2022-11-04T16:51:22;9.80;86.70
32506;DHT22;18955;51.224;8.482;2022-11-04T16:53:52;9.80;86.50
32506;DHT22;18955;51.224;8.482;2022-11-04T16:56:22;9.70;86.40
32506;DHT22;18955;51.224;8.482;2022-11-04T16:58:50;9.70;86.40
32506;DHT22;18955;51.224;8.482;2022-11-04T17:01:16;9.80;86.40
32506;DHT22;18955;51.224;8.482;2022-11-04T17:03:44;9.70;86.50
32506;DHT22;18955;51.224;8.482;2022-11-04T17:06:12;9.80;86.40
32506;DHT22;18955;51.224;8.482;2022-11-04T17:08:39;9.70;86.40
32506;DHT22;18955;51.224;8.482;2022-11-04T17:11:07;9.70;86.30
32506;DHT22;18955;51.224;8.482;2022-11-04T17:13:34;9.70;86.30
32506;DHT22;18955;51.224;8.482;2022-11-04T17:16:00;9.70;86.20
32506;DHT22;18955;51.224;8.482;2022-11-04T17:18:30;9.70;86.20
32506;DHT22;18955;51.224;8.482;2022-11-04T17:20:58;9.70;86.20
32506;DHT22;18955;51.224;8.482;2022-11-04T17:23:25;9.70;86.20
32506;DHT22;18955;51.224;8.482;2022-11-04T17:25:52;9.70;86.20
32506;DHT22;18955;51.224;8.482;2022-11-04T17:28:18;9.70;86.30
32506;DHT22;18955;51.224;8.482;2022-11-04T17:30:44;9.70;86.40
32506;DHT22;18955;51.224;8.482;2022-11-04T17:33:15;9.60;86.20
32506;DHT22;18955;51.224;8.482;2022-11-04T17:35:43;9.70;86.20
32506;DHT22;18955;51.224;8.482;2022-11-04T17:38:13;9.70;86.20
32506;DHT22;18955;51.224;8.482;2022-11-04T17:40:39;9.60;86.20
32506;DHT22;18955;51.224;8.482;2022-11-04T17:43:25;9.60;86.20
32506;DHT22;18955;51.224;8.482;2022-11-04T17:46:23;9.60;86.20
32506;DHT22;18955;51.224;8.482;2022-11-04T17:49:19;9.60;86.20
32506;DHT22;18955;51.224;8.482;2022-11-04T17:51:48;9.60;86.30
32506;DHT22;18955;51.224;8.482;2022-11-04T17:54:15;9.60;86.20
32506;DHT22;18955;51.224;8.482;2022-11-04T17:56:41;9.60;86.30
32506;DHT22;18955;51.224;8.482;2022-11-04T17:59:09;9.60;86.30
32506;DHT22;18955;51.224;8.482;2022-11-04T18:01:36;9.60;86.20
32506;DHT22;18955;51.224;8.482;2022-11-04T18:04:03;9.60;86.20
32506;DHT22;18955;51.224;8.482;2022-11-04T18:06:31;9.50;86.20
32506;DHT22;18955;51.224;8.482;2022-11-04T18:08:58;9.60;86.30
32506;DHT22;18955;51.224;8.482;2022-11-04T18:11:25;9.50;86.30
32506;DHT22;18955;51.224;8.482;2022-11-04T18:14:11;9.60;86.30
32506;DHT22;18955;51.224;8.482;2022-11-04T18:16:45;9.50;86.20
32506;DHT22;18955;51.224;8.482;2022-11-04T18:19:12;9.50;86.20
32506;DHT22;18955;51.224;8.482;2022-11-04T18:21:38;9.50;86.30
32506;DHT22;18955;51.224;8.482;2022-11-04T18:24:04;9.50;86.40
32506;DHT22;18955;51.224;8.482;2022-11-04T18:26:30;9.50;86.30
32506;DHT22;18955;51.224;8.482;2022-11-04T18:28:57;9.50;86.30
32506;DHT22;18955;51.224;8.482;2022-11-04T18:31:25;9.50;86.20
32506;DHT22;18955;51.224;8.482;2022-11-04T18:33:51;9.50;86.30
32506;DHT22;18955;51.224;8.482;2022-11-04T18:36:18;9.50;86.20
32506;DHT22;18955;51.224;8.482;2022-11-04T18:38:45;9.50;86.30
32506;DHT22;18955;51.224;8.482;2022-11-04T18:41:11;9.50;86.30
32506;DHT22;18955;51.224;8.482;2022-11-04T18:43:38;9.50;86.30
32506;DHT22;18955;51.224;8.482;2022-11-04T18:46:09;9.50;86.30
32506;DHT22;18955;51.224;8.482;2022-11-04T18:48:35;9.50;86.30
32506;DHT22;18955;51.224;8.482;2022-11-04T18:51:03;9.40;86.30
32506;DHT22;18955;51.224;8.482;2022-11-04T18:53:30;9.40;86.30
32506;DHT22;18955;51.224;8.482;2022-11-04T18:58:33;9.40;86.20
32506;DHT22;18955;51.224;8.482;2022-11-04T19:01:08;9.40;86.30
32506;DHT22;18955;51.224;8.482;2022-11-04T19:03:36;9.40;86.30
32506;DHT22;18955;51.224;8.482;2022-11-04T19:06:06;9.40;86.30
32506;DHT22;18955;51.224;8.482;2022-11-04T19:08:33;9.40;86.30
32506;DHT22;18955;51.224;8.482;2022-11-04T19:11:01;9.40;86.30
32506;DHT22;18955;51.224;8.482;2022-11-04T19:13:27;9.40;86.30